Terminal Aerodrome Forecast
Issued by NWS

Home | Current Version | Previous Version | Text Only | Print | Product List | Glossary On
Versions: 1 2 3 4 5 6 7 8 9 10 11 12 13 14 15 16 17 18 19 20 21 22 23 24 25 26 27
000
FTUS44 KJAN 271700
TAFHKS
TAF
KHKS 271720Z 2718/2818 36008G14KT P6SM OVC020
     FM271900 02008KT P6SM OVC050
     FM280800 03003KT P6SM OVC025
     FM281300 04004KT P6SM OVC050
     FM281500 06007KT P6SM BKN100=

USA.gov is the U.S. government's official web portal to all federal, state and local government web resources and services.